createdAt,value
2022-11-25T00:00:10.571Z,1.67
2022-11-25T00:03:55.221Z,1.65
2022-11-25T00:07:37.432Z,1.67
2022-11-25T00:11:19.438Z,1.63
2022-11-25T00:15:01.454Z,1.83
2022-11-25T00:18:48.647Z,1.67
2022-11-25T00:22:30.554Z,1.58
2022-11-25T00:26:15.469Z,1.73
2022-11-25T00:29:57.375Z,1.77
2022-11-25T00:33:40.478Z,1.63
2022-11-25T00:37:22.414Z,1.52
2022-11-25T00:41:23.125Z,2.10
2022-11-25T00:45:05.751Z,2.03
2022-11-25T00:48:47.743Z,1.60
2022-11-25T00:52:29.702Z,1.95
2022-11-25T00:56:14.855Z,1.60
2022-11-25T00:59:56.848Z,1.48
2022-11-25T01:03:39.290Z,2.13
2022-11-25T01:07:21.332Z,2.13
2022-11-25T01:11:08.642Z,1.98
2022-11-25T01:14:50.543Z,2.22
2022-11-25T01:18:32.954Z,1.90
2022-11-25T01:22:14.891Z,2.03
2022-11-25T01:25:56.866Z,1.85
2022-11-25T01:29:41.532Z,2.00
2022-11-25T01:33:23.631Z,2.00
2022-11-25T01:37:05.717Z,2.00
2022-11-25T01:40:47.667Z,2.50
2022-11-25T01:44:32.217Z,1.80
2022-11-25T01:48:22.346Z,1.83
2022-11-25T01:52:18.312Z,1.88
2022-11-25T01:56:04.028Z,1.88
2022-11-25T01:59:51.048Z,2.03
2022-11-25T02:03:37.441Z,1.75
2022-11-25T02:07:30.975Z,1.92
2022-11-25T02:11:16.066Z,1.80
2022-11-25T02:14:59.903Z,1.85
2022-11-25T02:18:41.977Z,1.40
2022-11-25T02:22:32.964Z,1.65
2022-11-25T02:26:14.954Z,2.10
2022-11-25T02:29:56.895Z,2.40
2022-11-25T02:33:38.873Z,1.65
2022-11-25T02:37:23.398Z,1.90
2022-11-25T02:41:18.408Z,1.92
2022-11-25T02:45:00.397Z,1.73
2022-11-25T02:49:07.793Z,1.95
2022-11-25T02:52:45.383Z,1.77
2022-11-25T02:56:31.721Z,2.20
2022-11-25T03:00:14.245Z,1.58
2022-11-25T03:03:56.196Z,1.60
2022-11-25T03:07:38.156Z,1.50
2022-11-25T03:11:20.158Z,1.63
2022-11-25T03:15:02.153Z,1.85
2022-11-25T03:18:44.116Z,1.75
2022-11-25T03:22:26.451Z,1.67
2022-11-25T03:26:08.390Z,1.75
2022-11-25T03:29:50.307Z,1.42
2022-11-25T03:33:32.290Z,1.60
2022-11-25T03:37:14.296Z,1.90
2022-11-25T03:40:56.289Z,1.90
2022-11-25T03:44:38.626Z,1.88
2022-11-25T03:48:20.678Z,1.60
2022-11-25T03:52:02.686Z,1.92
2022-11-25T03:55:47.301Z,1.80
2022-11-25T03:59:29.245Z,2.08
2022-11-25T04:03:11.235Z,1.90
2022-11-25T04:06:53.206Z,1.90
2022-11-25T04:10:35.274Z,1.95
2022-11-25T04:14:17.186Z,2.05
2022-11-25T04:17:59.208Z,1.65
2022-11-25T04:21:41.202Z,1.80
2022-11-25T04:25:23.279Z,1.55
2022-11-25T04:29:05.204Z,1.38
2022-11-25T04:32:47.213Z,1.60
2022-11-25T04:36:29.153Z,1.55
2022-11-25T04:40:11.710Z,1.77
2022-11-25T04:43:53.637Z,1.90
2022-11-25T04:47:35.671Z,1.83
2022-11-25T04:51:17.723Z,1.65
2022-11-25T04:54:59.904Z,2.05
2022-11-25T04:59:00.231Z,1.40
2022-11-25T05:02:42.402Z,1.50
2022-11-25T05:06:24.433Z,1.75
2022-11-25T05:10:07.667Z,1.35
2022-11-25T05:13:49.674Z,1.50
2022-11-25T05:17:32.882Z,1.75
2022-11-25T05:21:14.828Z,1.67
2022-11-25T05:24:57.775Z,1.83
2022-11-25T05:28:39.670Z,1.42
2022-11-25T05:32:21.647Z,1.40
2022-11-25T05:36:04.797Z,1.65
2022-11-25T05:39:46.739Z,2.15
2022-11-25T05:43:28.686Z,1.70
2022-11-25T05:47:10.648Z,1.67
2022-11-25T05:50:52.733Z,1.38
2022-11-25T05:54:35.149Z,1.35
2022-11-25T05:58:17.343Z,1.75
2022-11-25T06:01:59.412Z,1.67
2022-11-25T06:05:41.396Z,1.75
2022-11-25T06:09:23.484Z,1.40
2022-11-25T06:13:05.464Z,1.65
2022-11-25T06:16:47.474Z,1.10
2022-11-25T06:20:29.442Z,2.10
2022-11-25T06:24:11.415Z,1.40
2022-11-25T06:31:55.529Z,2.00
2022-11-25T06:35:37.649Z,1.60
2022-11-25T06:39:19.846Z,1.92
2022-11-25T06:43:01.832Z,1.70
2022-11-25T06:46:43.872Z,1.60
2022-11-25T06:50:25.825Z,1.52
2022-11-25T06:54:08.664Z,1.33
2022-11-25T06:57:53.316Z,1.38
2022-11-25T07:01:38.470Z,1.30
2022-11-25T07:05:20.441Z,1.48
2022-11-25T07:09:02.656Z,1.65
2022-11-25T07:12:44.934Z,1.70
2022-11-25T07:16:27.755Z,1.50
2022-11-25T07:20:10.119Z,1.90
2022-11-25T07:23:53.205Z,1.63
2022-11-25T07:27:35.205Z,1.50
2022-11-25T07:31:23.803Z,1.80
2022-11-25T07:35:06.990Z,1.90
2022-11-25T07:38:49.542Z,1.92
2022-11-25T07:42:31.584Z,1.40
2022-11-25T07:46:22.010Z,1.52
2022-11-25T07:50:08.024Z,1.52
2022-11-25T07:53:51.035Z,1.92
2022-11-25T07:57:33.054Z,1.65
2022-11-25T08:01:16.537Z,1.70
2022-11-25T08:04:58.544Z,1.80
2022-11-25T08:08:41.579Z,1.73
2022-11-25T08:12:23.584Z,1.52
2022-11-25T08:16:09.250Z,1.50
2022-11-25T08:19:51.299Z,1.65
2022-11-25T08:23:34.126Z,1.27
2022-11-25T08:27:16.128Z,1.65
2022-11-25T08:31:07.155Z,1.60
2022-11-25T08:34:49.189Z,1.63
2022-11-25T08:38:31.365Z,1.63
2022-11-25T08:42:13.387Z,1.85
2022-11-25T08:45:55.446Z,1.85
2022-11-25T08:49:41.363Z,1.67
2022-11-25T08:53:24.155Z,1.30
2022-11-25T08:57:06.261Z,1.80
2022-11-25T09:00:48.246Z,1.50
2022-11-25T09:04:30.219Z,1.40
2022-11-25T09:08:12.608Z,1.70
2022-11-25T09:11:54.770Z,1.75
2022-11-25T09:15:37.779Z,1.60
2022-11-25T09:19:20.417Z,1.58
2022-11-25T09:23:03.202Z,1.55
2022-11-25T09:26:45.236Z,1.40
2022-11-25T09:30:27.296Z,1.50
2022-11-25T09:34:10.061Z,1.85
2022-11-25T09:37:52.236Z,1.80
2022-11-25T09:42:19.298Z,1.40
2022-11-25T09:46:40.950Z,1.83
2022-11-25T09:50:31.745Z,1.60
2022-11-25T09:54:22.023Z,1.60
2022-11-25T09:58:34.807Z,1.63
2022-11-25T10:02:40.006Z,2.20
2022-11-25T10:06:28.680Z,1.55
2022-11-25T10:10:22.374Z,1.27
2022-11-25T10:14:22.825Z,1.42
2022-11-25T10:18:13.660Z,1.30
2022-11-25T10:21:55.611Z,1.48
2022-11-25T10:25:45.976Z,1.67
2022-11-25T10:29:30.167Z,1.20
2022-11-25T10:33:21.499Z,1.00
2022-11-25T10:37:10.890Z,1.73
2022-11-25T10:40:54.766Z,1.67
2022-11-25T10:44:39.104Z,1.45
2022-11-25T10:48:48.829Z,1.83
2022-11-25T10:52:35.386Z,1.67
2022-11-25T10:56:18.983Z,1.20
2022-11-25T11:00:02.037Z,1.38
2022-11-25T11:03:46.571Z,1.50
2022-11-25T11:07:33.345Z,1.38
2022-11-25T11:15:23.276Z,1.70
2022-11-25T11:19:05.667Z,1.13
2022-11-25T11:23:11.873Z,1.75
2022-11-25T11:27:05.986Z,1.20
2022-11-25T11:31:15.521Z,1.38
2022-11-25T11:35:08.169Z,1.50
2022-11-25T11:38:52.977Z,1.77
2022-11-25T11:42:49.350Z,1.40
2022-11-25T11:46:37.442Z,1.70
2022-11-25T11:50:38.120Z,1.83
2022-11-25T11:54:36.771Z,1.35
2022-11-25T11:58:39.470Z,1.27
2022-11-25T12:02:40.887Z,1.35
2022-11-25T12:06:25.682Z,1.30
2022-11-25T12:10:22.673Z,1.33
2022-11-25T12:14:31.334Z,1.58
2022-11-25T12:18:43.278Z,1.60
2022-11-25T12:22:42.534Z,1.38
2022-11-25T12:26:48.813Z,1.80
2022-11-25T12:30:40.393Z,1.70
2022-11-25T12:34:48.788Z,1.27
2022-11-25T12:38:55.545Z,1.50
2022-11-25T12:42:39.264Z,1.98
2022-11-25T12:46:47.280Z,2.40
2022-11-25T12:50:38.046Z,1.85
2022-11-25T12:54:43.570Z,1.60
2022-11-25T12:58:31.663Z,1.98
2022-11-25T13:02:47.240Z,1.98
2022-11-25T13:06:30.967Z,1.90
2022-11-25T13:10:43.822Z,1.70
2022-11-25T13:14:31.928Z,2.05
2022-11-25T13:18:21.231Z,1.67
2022-11-25T13:22:27.240Z,2.15
2022-11-25T13:26:37.172Z,2.00
2022-11-25T13:30:34.298Z,1.42
2022-11-25T13:34:19.083Z,1.80
2022-11-25T13:38:01.136Z,1.50
2022-11-25T13:41:48.184Z,2.00
2022-11-25T13:45:34.523Z,1.58
2022-11-25T13:49:56.244Z,1.80
2022-11-25T13:53:38.971Z,2.30
2022-11-25T13:57:34.218Z,1.73
2022-11-25T14:01:29.466Z,2.40
2022-11-25T14:05:34.312Z,1.57
2022-11-25T14:09:54.121Z,2.00
2022-11-25T14:14:07.250Z,1.73
2022-11-25T14:18:16.212Z,2.00
2022-11-25T14:22:43.411Z,1.95
2022-11-25T14:26:48.600Z,2.27
2022-11-25T14:30:32.807Z,1.83
2022-11-25T14:34:20.882Z,2.08
2022-11-25T14:38:20.631Z,1.90
2022-11-25T14:42:12.198Z,2.15
2022-11-25T14:46:15.459Z,1.80
2022-11-25T14:54:09.916Z,2.03
2022-11-25T14:57:52.890Z,1.73
2022-11-25T15:01:36.500Z,1.75
2022-11-25T15:05:20.448Z,1.80
2022-11-25T15:09:03.856Z,2.15
2022-11-25T15:12:50.052Z,2.00
2022-11-25T15:16:39.477Z,2.20
2022-11-25T15:20:34.592Z,2.50
2022-11-25T15:24:40.518Z,2.05
2022-11-25T15:28:22.601Z,1.83
2022-11-25T15:32:04.822Z,1.98
2022-11-25T15:35:47.983Z,1.88
2022-11-25T15:39:30.800Z,1.92
2022-11-25T15:43:29.784Z,2.08
2022-11-25T15:47:20.771Z,1.77
2022-11-25T15:51:06.101Z,1.70
2022-11-25T15:54:52.601Z,2.15
2022-11-25T15:58:35.208Z,2.00
2022-11-25T16:02:41.556Z,2.03
2022-11-25T16:06:28.620Z,2.08
2022-11-25T16:10:49.065Z,1.85
2022-11-25T16:14:36.976Z,2.22
2022-11-25T16:22:22.703Z,2.60
2022-11-25T16:26:14.973Z,2.17
2022-11-25T16:30:06.248Z,3.25
2022-11-25T16:33:48.347Z,5.28
2022-11-25T16:37:30.318Z,7.10
2022-11-25T16:41:23.421Z,6.30
2022-11-25T16:45:18.377Z,6.75
2022-11-25T16:49:08.355Z,6.97
2022-11-25T16:52:50.419Z,7.03
2022-11-25T16:56:34.333Z,6.43
2022-11-25T17:00:17.474Z,8.07
2022-11-25T17:03:59.567Z,9.27
2022-11-25T17:07:41.542Z,7.95
2022-11-25T17:11:46.897Z,8.18
2022-11-25T17:15:38.567Z,9.25
2022-11-25T17:19:20.827Z,5.85
2022-11-25T17:23:02.812Z,5.28
2022-11-25T17:26:48.274Z,3.03
2022-11-25T17:30:30.432Z,4.18
2022-11-25T17:34:15.633Z,1.50
2022-11-25T17:37:59.796Z,1.50
2022-11-25T17:41:47.489Z,1.60
2022-11-25T17:45:29.671Z,1.48
2022-11-25T17:49:16.217Z,1.50
2022-11-25T17:52:58.226Z,1.50
2022-11-25T17:56:42.368Z,1.52
2022-11-25T18:00:24.909Z,2.13
2022-11-25T18:04:27.564Z,1.60
2022-11-25T18:08:09.471Z,1.70
2022-11-25T18:11:54.862Z,1.50
2022-11-25T18:15:36.855Z,1.80
2022-11-25T18:19:18.856Z,1.50
2022-11-25T18:23:01.240Z,1.80
2022-11-25T18:26:47.684Z,1.48
2022-11-25T18:30:33.475Z,1.85
2022-11-25T18:34:17.412Z,2.20
2022-11-25T18:38:00.446Z,2.40
2022-11-25T18:41:44.052Z,1.63
2022-11-25T18:45:28.348Z,2.13
2022-11-25T18:49:14.635Z,2.45
2022-11-25T18:52:56.554Z,2.15
2022-11-25T18:56:40.172Z,1.75
2022-11-25T19:00:34.474Z,2.38
2022-11-25T19:04:17.216Z,3.65
2022-11-25T19:07:59.269Z,5.07
2022-11-25T19:11:47.192Z,3.50
2022-11-25T19:15:29.206Z,4.10
2022-11-25T19:19:15.777Z,2.97
2022-11-25T19:23:01.139Z,2.40
2022-11-25T19:26:49.066Z,2.42
2022-11-25T19:30:32.827Z,2.60
2022-11-25T19:34:29.102Z,1.83
2022-11-25T19:38:29.849Z,1.50
2022-11-25T19:42:11.829Z,1.13
2022-11-25T19:45:55.620Z,1.20
2022-11-25T19:49:38.689Z,1.40
2022-11-25T19:53:21.781Z,1.60
2022-11-25T19:57:03.806Z,1.90
2022-11-25T20:00:47.927Z,1.60
2022-11-25T20:04:29.873Z,1.45
2022-11-25T20:08:27.843Z,1.60
2022-11-25T20:12:29.787Z,3.72
2022-11-25T20:16:34.716Z,2.95
2022-11-25T20:20:25.008Z,4.00
2022-11-25T20:24:14.433Z,3.17
2022-11-25T20:27:56.782Z,2.95
2022-11-25T20:31:38.754Z,3.60
2022-11-25T20:35:21.445Z,3.22
2022-11-25T20:39:04.236Z,4.13
2022-11-25T20:42:47.875Z,3.58
2022-11-25T20:46:30.156Z,3.42
2022-11-25T20:50:15.642Z,3.47
2022-11-25T20:54:01.310Z,4.00
2022-11-25T20:57:44.282Z,3.10
2022-11-25T21:01:26.293Z,2.88
2022-11-25T21:05:08.629Z,3.35
2022-11-25T21:08:53.134Z,2.97
2022-11-25T21:12:35.122Z,3.05
2022-11-25T21:16:17.120Z,2.80
2022-11-25T21:19:59.170Z,2.67
2022-11-25T21:23:41.191Z,2.58
2022-11-25T21:27:23.164Z,2.83
2022-11-25T21:31:11.022Z,3.05
2022-11-25T21:34:53.658Z,2.25
2022-11-25T21:38:35.634Z,2.17
2022-11-25T21:42:20.439Z,2.83
2022-11-25T21:46:14.168Z,2.60
2022-11-25T21:49:56.245Z,2.65
2022-11-25T21:53:38.451Z,2.58
2022-11-25T21:57:27.836Z,2.47
2022-11-25T22:01:12.237Z,2.25
2022-11-25T22:04:59.079Z,2.25
2022-11-25T22:12:30.758Z,2.78
2022-11-25T22:16:16.300Z,2.97
2022-11-25T22:19:58.604Z,3.10
2022-11-25T22:23:41.540Z,2.95
2022-11-25T22:27:36.430Z,3.15
2022-11-25T22:31:20.503Z,2.97
2022-11-25T22:35:02.521Z,2.80
2022-11-25T22:38:44.457Z,2.72
2022-11-25T22:42:29.822Z,2.88
2022-11-25T22:46:12.028Z,2.72
2022-11-25T22:49:54.914Z,1.92
2022-11-25T22:53:36.868Z,1.92
2022-11-25T22:57:19.563Z,2.08
2022-11-25T23:01:01.561Z,1.90
2022-11-25T23:04:46.261Z,1.73
2022-11-25T23:08:31.676Z,2.00
2022-11-25T23:12:14.529Z,1.67
2022-11-25T23:15:58.647Z,1.98
2022-11-25T23:19:40.633Z,1.90
2022-11-25T23:23:27.126Z,2.50
2022-11-25T23:27:09.209Z,2.25
2022-11-25T23:30:58.945Z,2.10
2022-11-25T23:34:41.051Z,2.70
2022-11-25T23:38:25.375Z,2.55
2022-11-25T23:42:25.463Z,1.92
2022-11-25T23:46:12.889Z,1.70
2022-11-25T23:49:57.942Z,1.77
2022-11-25T23:53:41.142Z,1.90
2022-11-25T23:57:32.887Z,1.58
